createdAt,value
2018-06-11T00:01:15.690Z,20.60
2018-06-11T00:03:43.167Z,20.60
2018-06-11T00:06:10.700Z,20.40
2018-06-11T00:08:38.081Z,20.40
2018-06-11T00:11:05.526Z,20.30
2018-06-11T00:13:33.074Z,20.20
2018-06-11T00:16:00.496Z,20.10
2018-06-11T00:18:27.987Z,20.00
2018-06-11T00:20:55.365Z,20.10
2018-06-11T00:23:22.853Z,20.00
2018-06-11T00:25:50.428Z,20.00
2018-06-11T00:28:18.009Z,19.90
2018-06-11T00:30:45.509Z,20.00
2018-06-11T00:33:13.025Z,20.00
2018-06-11T00:35:40.505Z,20.00
2018-06-11T00:38:07.909Z,20.00
2018-06-11T00:40:35.316Z,19.90
2018-06-11T00:43:02.905Z,20.00
2018-06-11T00:45:30.427Z,20.00
2018-06-11T00:47:57.956Z,20.00
2018-06-11T00:50:25.453Z,19.90
2018-06-11T00:52:53.020Z,19.90
2018-06-11T00:55:20.513Z,19.90
2018-06-11T00:57:47.993Z,20.00
2018-06-11T01:00:15.433Z,20.00
2018-06-11T01:02:42.974Z,20.00
2018-06-11T01:05:10.494Z,19.90
2018-06-11T01:07:38.019Z,20.00
2018-06-11T01:10:05.471Z,19.90
2018-06-11T01:12:32.830Z,19.90
2018-06-11T01:15:00.402Z,19.80
2018-06-11T01:17:27.901Z,19.90
2018-06-11T01:19:55.442Z,19.80
2018-06-11T01:22:22.934Z,19.70
2018-06-11T01:24:50.356Z,19.70
2018-06-11T01:27:17.948Z,19.70
2018-06-11T01:29:45.489Z,19.60
2018-06-11T01:32:12.970Z,19.60
2018-06-11T01:34:40.397Z,19.60
2018-06-11T01:37:07.851Z,19.70
2018-06-11T01:39:35.306Z,19.60
2018-06-11T01:42:02.784Z,19.60
2018-06-11T01:44:30.255Z,19.60
2018-06-11T01:46:57.717Z,19.50
2018-06-11T01:49:25.155Z,19.50
2018-06-11T01:51:52.719Z,19.50
2018-06-11T01:54:20.293Z,19.50
2018-06-11T01:56:47.827Z,19.50
2018-06-11T01:59:15.331Z,19.60
2018-06-11T02:01:42.859Z,19.60
2018-06-11T02:04:10.279Z,19.60
2018-06-11T02:06:37.790Z,19.60
2018-06-11T02:09:06.792Z,19.70
2018-06-11T02:11:34.392Z,19.70
2018-06-11T02:14:01.926Z,19.70
2018-06-11T02:16:29.436Z,19.60
2018-06-11T02:18:56.936Z,19.60
2018-06-11T02:21:24.464Z,19.70
2018-06-11T02:23:52.009Z,19.70
2018-06-11T02:26:19.531Z,19.60
2018-06-11T02:28:47.108Z,19.60
2018-06-11T02:31:14.621Z,19.60
2018-06-11T02:33:42.159Z,19.70
2018-06-11T02:36:09.688Z,19.70
2018-06-11T02:38:37.140Z,19.80
2018-06-11T02:41:04.579Z,19.70
2018-06-11T02:43:32.059Z,19.70
2018-06-11T02:45:59.534Z,19.70
2018-06-11T02:48:27.018Z,19.80
2018-06-11T02:50:54.530Z,19.70
2018-06-11T02:53:22.033Z,19.70
2018-06-11T02:55:49.563Z,19.80
2018-06-11T02:58:17.014Z,19.80
2018-06-11T03:00:44.418Z,19.90
2018-06-11T03:03:12.017Z,19.80
2018-06-11T03:05:39.513Z,19.70
2018-06-11T03:08:06.933Z,19.60
2018-06-11T03:10:34.436Z,19.60
2018-06-11T03:13:01.885Z,19.50
2018-06-11T03:15:29.376Z,19.50
2018-06-11T03:17:56.868Z,19.60
2018-06-11T03:20:24.472Z,19.50
2018-06-11T03:22:51.993Z,19.50
2018-06-11T03:25:19.393Z,19.50
2018-06-11T03:27:46.944Z,19.50
2018-06-11T03:30:14.496Z,19.50
2018-06-11T03:32:41.973Z,19.50
2018-06-11T03:35:09.392Z,19.50
2018-06-11T03:37:36.877Z,19.40
2018-06-11T03:40:04.396Z,19.50
2018-06-11T03:42:31.889Z,19.40
2018-06-11T03:44:59.449Z,19.40
2018-06-11T03:47:26.953Z,19.30
2018-06-11T03:49:54.437Z,19.40
2018-06-11T03:52:21.855Z,19.40
2018-06-11T03:54:49.744Z,19.30
2018-06-11T03:57:17.195Z,19.40
2018-06-11T03:59:44.637Z,19.40
2018-06-11T04:02:12.173Z,19.30
2018-06-11T04:04:39.778Z,19.40
2018-06-11T04:07:07.323Z,19.30
2018-06-11T04:09:34.896Z,19.40
2018-06-11T04:12:02.447Z,19.30
2018-06-11T04:14:29.929Z,19.30
2018-06-11T04:16:57.472Z,19.30
2018-06-11T04:19:24.897Z,19.20
2018-06-11T04:21:52.325Z,19.20
2018-06-11T04:24:19.822Z,19.30
2018-06-11T04:26:47.254Z,19.20
2018-06-11T04:29:26.108Z,19.20
2018-06-11T04:34:39.745Z,19.40
2018-06-11T04:39:34.671Z,19.50
2018-06-11T04:42:02.271Z,19.60
2018-06-11T04:44:29.783Z,19.70
2018-06-11T04:46:57.298Z,19.70
2018-06-11T04:49:24.744Z,19.80
2018-06-11T04:51:52.193Z,19.80
2018-06-11T04:54:19.685Z,19.90
2018-06-11T04:56:47.291Z,19.90
2018-06-11T04:59:14.797Z,19.90
2018-06-11T05:01:42.345Z,19.90
2018-06-11T05:04:09.759Z,20.10
2018-06-11T05:06:37.237Z,20.10
2018-06-11T05:09:06.154Z,20.20
2018-06-11T05:11:33.654Z,20.30
2018-06-11T05:14:01.173Z,20.30
2018-06-11T05:16:28.608Z,20.30
2018-06-11T05:18:56.131Z,20.20
2018-06-11T05:21:23.621Z,20.20
2018-06-11T05:23:51.121Z,20.20
2018-06-11T05:26:18.601Z,20.30
2018-06-11T05:28:46.201Z,20.20
2018-06-11T05:31:13.761Z,20.30
2018-06-11T05:33:41.356Z,20.50
2018-06-11T05:36:08.809Z,20.70
2018-06-11T05:38:36.421Z,20.90
2018-06-11T05:41:03.946Z,21.00
2018-06-11T05:43:31.468Z,20.90
2018-06-11T05:45:58.834Z,20.90
2018-06-11T05:48:26.289Z,21.10
2018-06-11T05:50:53.833Z,21.20
2018-06-11T05:53:21.329Z,21.30
2018-06-11T05:55:48.731Z,21.50
2018-06-11T05:58:16.176Z,21.70
2018-06-11T06:00:43.600Z,21.80
2018-06-11T06:03:11.054Z,21.90
2018-06-11T06:05:38.551Z,21.80
2018-06-11T06:08:06.150Z,22.10
2018-06-11T06:10:33.714Z,22.20
2018-06-11T06:13:01.389Z,22.20
2018-06-11T06:15:28.950Z,22.20
2018-06-11T06:17:56.587Z,22.30
2018-06-11T06:20:24.110Z,22.40
2018-06-11T06:22:51.593Z,22.40
2018-06-11T06:25:19.042Z,22.40
2018-06-11T06:27:46.674Z,22.50
2018-06-11T06:30:14.177Z,22.70
2018-06-11T06:32:41.837Z,23.00
2018-06-11T06:35:09.423Z,23.00
2018-06-11T06:37:37.051Z,23.10
2018-06-11T06:40:04.730Z,23.10
2018-06-11T06:42:32.232Z,23.00
2018-06-11T06:44:59.704Z,23.00
2018-06-11T06:47:27.213Z,22.90
2018-06-11T06:49:54.750Z,22.90
2018-06-11T06:52:22.168Z,23.10
2018-06-11T06:54:49.703Z,23.30
2018-06-11T06:57:17.286Z,23.50
2018-06-11T06:59:44.741Z,23.50
2018-06-11T07:02:12.193Z,23.50
2018-06-11T07:04:39.636Z,23.40
2018-06-11T07:07:07.074Z,23.80
2018-06-11T07:09:34.475Z,24.00
2018-06-11T07:12:01.977Z,23.80
2018-06-11T07:14:29.407Z,23.90
2018-06-11T07:16:57.066Z,23.90
2018-06-11T07:19:24.570Z,24.00
2018-06-11T07:21:52.125Z,24.10
2018-06-11T07:24:20.431Z,24.10
2018-06-11T07:26:49.057Z,24.20
2018-06-11T07:29:16.528Z,24.40
2018-06-11T07:31:44.035Z,24.50
2018-06-11T07:34:11.534Z,24.70
2018-06-11T07:36:39.012Z,24.90
2018-06-11T07:39:07.306Z,25.00
2018-06-11T07:41:35.048Z,25.10
2018-06-11T07:44:02.820Z,25.10
2018-06-11T07:46:30.358Z,25.30
2018-06-11T07:48:57.810Z,25.10
2018-06-11T07:51:25.358Z,25.30
2018-06-11T07:53:52.890Z,25.50
2018-06-11T07:56:20.377Z,25.30
2018-06-11T07:58:47.822Z,25.40
2018-06-11T08:03:42.777Z,25.20
2018-06-11T08:06:10.286Z,25.30
2018-06-11T08:08:37.748Z,25.60
2018-06-11T08:11:05.139Z,25.70
2018-06-11T08:13:32.683Z,25.90
2018-06-11T08:16:00.193Z,25.90
2018-06-11T08:18:27.712Z,26.00
2018-06-11T08:20:55.208Z,26.10
2018-06-11T08:23:22.696Z,26.20
2018-06-11T08:25:50.131Z,26.40
2018-06-11T08:28:17.673Z,26.40
2018-06-11T08:30:45.192Z,26.40
2018-06-11T08:33:12.680Z,26.50
2018-06-11T08:35:40.220Z,26.50
2018-06-11T08:38:07.719Z,26.60
2018-06-11T08:40:35.217Z,26.80
2018-06-11T08:43:02.690Z,26.70
2018-06-11T08:45:30.289Z,26.90
2018-06-11T08:47:57.825Z,26.90
2018-06-11T08:50:25.305Z,27.10
2018-06-11T08:52:52.821Z,27.20
2018-06-11T08:55:20.286Z,27.30
2018-06-11T08:57:47.846Z,27.50
2018-06-11T09:00:15.346Z,27.50
2018-06-11T09:02:42.792Z,27.50
2018-06-11T09:05:10.311Z,27.70
2018-06-11T09:07:38.643Z,27.60
2018-06-11T09:10:06.447Z,27.70
2018-06-11T09:12:33.922Z,27.80
2018-06-11T09:15:01.422Z,27.80
2018-06-11T09:17:28.918Z,27.60
2018-06-11T09:19:56.475Z,27.80
2018-06-11T09:22:24.060Z,28.00
2018-06-11T09:24:51.660Z,28.10
2018-06-11T09:27:19.082Z,28.20
2018-06-11T09:29:46.528Z,28.50
2018-06-11T09:32:13.975Z,28.50
2018-06-11T09:34:41.598Z,28.50
2018-06-11T09:37:09.134Z,28.70
2018-06-11T09:39:36.649Z,28.90
2018-06-11T09:42:04.153Z,29.00
2018-06-11T09:44:31.739Z,28.90
2018-06-11T09:46:59.264Z,29.00
2018-06-11T09:49:26.732Z,29.00
2018-06-11T09:51:54.244Z,29.10
2018-06-11T09:54:21.696Z,28.90
2018-06-11T09:56:49.189Z,28.90
2018-06-11T09:59:16.747Z,28.80
2018-06-11T10:01:44.224Z,28.90
2018-06-11T10:04:11.721Z,29.10
2018-06-11T10:06:39.288Z,28.80
2018-06-11T10:09:08.049Z,28.70
2018-06-11T10:11:35.574Z,28.90
2018-06-11T10:14:03.765Z,28.70
2018-06-11T10:16:31.457Z,28.40
2018-06-11T10:18:59.043Z,28.10
2018-06-11T10:21:26.480Z,28.00
2018-06-11T10:23:54.033Z,27.80
2018-06-11T10:26:21.522Z,27.80
2018-06-11T10:28:48.988Z,27.60
2018-06-11T10:31:16.450Z,27.40
2018-06-11T10:33:43.905Z,27.20
2018-06-11T10:36:11.378Z,27.10
2018-06-11T10:38:38.861Z,26.90
2018-06-11T10:41:06.382Z,25.80
2018-06-11T10:43:33.846Z,25.10
2018-06-11T10:46:01.388Z,24.60
2018-06-11T10:48:28.913Z,24.10
2018-06-11T10:50:56.394Z,24.00
2018-06-11T10:53:23.883Z,23.80
2018-06-11T10:55:51.432Z,23.80
2018-06-11T10:58:18.877Z,23.80
2018-06-11T11:00:46.411Z,23.70
2018-06-11T11:05:41.448Z,23.90
2018-06-11T11:08:08.908Z,24.30
2018-06-11T11:10:36.501Z,24.70
2018-06-11T11:13:04.237Z,25.20
2018-06-11T11:15:31.793Z,25.50
2018-06-11T11:17:59.394Z,25.50
2018-06-11T11:20:26.936Z,25.80
2018-06-11T11:22:54.433Z,26.00
2018-06-11T11:25:22.018Z,26.20
2018-06-11T11:30:17.994Z,26.40
2018-06-11T11:32:46.170Z,26.20
2018-06-11T11:35:13.651Z,26.50
2018-06-11T11:37:41.297Z,26.70
2018-06-11T11:40:09.508Z,26.90
2018-06-11T11:45:06.830Z,27.40
2018-06-11T11:47:34.368Z,27.50
2018-06-11T11:50:01.928Z,27.50
2018-06-11T11:52:29.524Z,27.60
2018-06-11T11:54:57.021Z,27.40
2018-06-11T11:57:24.507Z,27.50
2018-06-11T11:59:52.067Z,27.70
2018-06-11T12:02:19.585Z,28.20
2018-06-11T12:04:47.015Z,28.30
2018-06-11T12:07:14.444Z,28.50
2018-06-11T12:09:41.892Z,28.70
2018-06-11T12:12:09.348Z,28.60
2018-06-11T12:14:36.806Z,28.10
2018-06-11T12:17:04.341Z,28.00
2018-06-11T12:19:31.818Z,28.00
2018-06-11T12:21:59.302Z,27.70
2018-06-11T12:24:26.737Z,27.50
2018-06-11T12:26:54.231Z,27.40
2018-06-11T12:29:21.798Z,27.30
2018-06-11T12:31:49.359Z,27.40
2018-06-11T12:34:19.825Z,27.30
2018-06-11T12:36:47.318Z,27.30
2018-06-11T12:41:49.157Z,27.20
2018-06-11T12:44:16.685Z,27.10
2018-06-11T12:46:44.211Z,27.00
2018-06-11T12:49:11.790Z,27.00
2018-06-11T12:51:39.853Z,27.00
2018-06-11T12:54:07.558Z,27.00
2018-06-11T12:56:35.660Z,27.00
2018-06-11T12:59:03.227Z,26.80
2018-06-11T13:01:31.088Z,26.70
2018-06-11T13:03:58.655Z,26.50
2018-06-11T13:06:26.396Z,26.40
2018-06-11T13:08:53.907Z,26.30
2018-06-11T13:11:21.351Z,26.20
2018-06-11T13:13:48.981Z,26.00
2018-06-11T13:16:16.548Z,25.90
2018-06-11T13:18:44.108Z,25.80
2018-06-11T13:21:11.585Z,25.70
2018-06-11T13:23:39.058Z,25.50
2018-06-11T13:26:06.637Z,25.40
2018-06-11T13:28:34.146Z,25.30
2018-06-11T13:31:01.755Z,25.20
2018-06-11T13:33:29.213Z,25.20
2018-06-11T13:35:56.777Z,25.10
2018-06-11T13:38:24.312Z,25.10
2018-06-11T13:40:51.792Z,25.00
2018-06-11T13:43:19.228Z,25.00
2018-06-11T13:45:46.786Z,24.90
2018-06-11T13:48:14.321Z,24.80
2018-06-11T13:50:41.773Z,24.80
2018-06-11T13:53:09.257Z,24.70
2018-06-11T13:55:36.740Z,24.70
2018-06-11T13:58:04.723Z,24.60
2018-06-11T14:00:32.521Z,24.60
2018-06-11T14:03:00.009Z,24.50
2018-06-11T14:05:27.393Z,24.50
2018-06-11T14:07:54.857Z,24.40
2018-06-11T14:10:22.479Z,24.30
2018-06-11T14:12:49.956Z,24.10
2018-06-11T14:15:17.491Z,24.00
2018-06-11T14:17:45.017Z,24.00
2018-06-11T14:20:12.618Z,24.00
2018-06-11T14:22:40.169Z,24.10
2018-06-11T14:25:07.647Z,23.90
2018-06-11T14:27:35.102Z,23.60
2018-06-11T14:30:02.658Z,23.10
2018-06-11T14:32:30.185Z,22.60
2018-06-11T14:34:57.731Z,22.50
2018-06-11T14:37:25.229Z,22.50
2018-06-11T14:39:52.940Z,22.30
2018-06-11T14:42:20.556Z,22.30
2018-06-11T14:44:48.161Z,22.20
2018-06-11T14:47:15.731Z,22.00
2018-06-11T14:49:43.273Z,21.80
2018-06-11T14:52:10.856Z,21.80
2018-06-11T14:54:38.262Z,21.80
2018-06-11T14:57:05.743Z,21.80
2018-06-11T14:59:33.278Z,21.80
2018-06-11T15:02:00.852Z,21.80
2018-06-11T15:04:28.422Z,22.00
2018-06-11T15:06:55.809Z,21.90
2018-06-11T15:09:23.493Z,21.90
2018-06-11T15:11:51.031Z,21.90
2018-06-11T15:14:18.480Z,21.80
2018-06-11T15:16:45.954Z,21.80
2018-06-11T15:19:13.504Z,21.80
2018-06-11T15:21:40.987Z,21.70
2018-06-11T15:24:08.524Z,21.80
2018-06-11T15:26:35.995Z,21.70
2018-06-11T15:29:03.534Z,21.80
2018-06-11T15:31:31.082Z,21.90
2018-06-11T15:33:58.567Z,21.90
2018-06-11T15:36:26.077Z,21.80
2018-06-11T15:38:53.682Z,21.70
2018-06-11T15:41:21.192Z,21.70
2018-06-11T15:43:48.692Z,21.70
2018-06-11T15:46:16.261Z,21.80
2018-06-11T15:48:43.751Z,21.80
2018-06-11T15:51:11.149Z,21.80
2018-06-11T15:53:38.560Z,21.90
2018-06-11T15:56:06.049Z,21.90
2018-06-11T15:58:33.566Z,21.90
2018-06-11T16:01:01.101Z,21.80
2018-06-11T16:03:28.693Z,21.80
2018-06-11T16:05:56.304Z,21.70
2018-06-11T16:08:23.754Z,21.70
2018-06-11T16:10:51.359Z,21.70
2018-06-11T16:13:18.911Z,21.60
2018-06-11T16:15:46.471Z,21.60
2018-06-11T16:18:13.938Z,21.70
2018-06-11T16:20:41.429Z,21.70
2018-06-11T16:23:08.940Z,21.60
2018-06-11T16:25:36.454Z,21.70
2018-06-11T16:28:03.942Z,21.60
2018-06-11T16:30:31.489Z,21.50
2018-06-11T16:32:59.027Z,21.50
2018-06-11T16:35:26.569Z,21.50
2018-06-11T16:37:54.120Z,21.50
2018-06-11T16:40:21.642Z,21.50
2018-06-11T16:42:49.176Z,21.60
2018-06-11T16:45:16.674Z,21.60
2018-06-11T16:47:44.101Z,21.60
2018-06-11T16:50:11.676Z,21.50
2018-06-11T16:52:39.339Z,21.40
2018-06-11T16:55:07.005Z,21.50
2018-06-11T16:57:34.681Z,21.50
2018-06-11T17:00:02.197Z,21.40
2018-06-11T17:02:29.698Z,21.30
2018-06-11T17:04:57.513Z,21.40
2018-06-11T17:07:24.947Z,21.40
2018-06-11T17:09:52.619Z,21.50
2018-06-11T17:12:20.103Z,21.40
2018-06-11T17:14:48.028Z,21.30
2018-06-11T17:17:16.136Z,21.30
2018-06-11T17:19:43.651Z,21.30
2018-06-11T17:22:11.268Z,21.20
2018-06-11T17:24:38.770Z,21.30
2018-06-11T17:27:06.286Z,21.30
2018-06-11T17:29:33.901Z,21.10
2018-06-11T17:32:01.458Z,20.90
2018-06-11T17:34:28.920Z,20.70
2018-06-11T17:36:56.420Z,20.80
2018-06-11T17:39:23.907Z,20.90
2018-06-11T17:41:51.451Z,20.80
2018-06-11T17:44:18.974Z,20.80
2018-06-11T17:46:46.624Z,20.80
2018-06-11T17:49:14.147Z,20.90
2018-06-11T17:51:41.749Z,20.90
2018-06-11T17:54:09.284Z,20.90
2018-06-11T17:56:36.797Z,21.10
2018-06-11T17:59:04.339Z,21.30
2018-06-11T18:01:31.892Z,21.40
2018-06-11T18:03:59.522Z,21.50
2018-06-11T18:06:27.049Z,21.50
2018-06-11T18:08:54.632Z,21.50
2018-06-11T18:11:22.193Z,21.40
2018-06-11T18:13:49.702Z,21.30
2018-06-11T18:16:17.231Z,21.20
2018-06-11T18:18:44.820Z,21.10
2018-06-11T18:21:12.294Z,21.10
2018-06-11T18:23:39.804Z,21.10
2018-06-11T18:26:07.405Z,21.20
2018-06-11T18:28:34.965Z,21.30
2018-06-11T18:31:02.581Z,21.30
2018-06-11T18:33:30.385Z,21.30
2018-06-11T18:35:58.989Z,21.10
2018-06-11T18:38:26.751Z,21.10
2018-06-11T18:40:54.421Z,21.00
2018-06-11T18:43:21.967Z,21.20
2018-06-11T18:45:49.460Z,20.90
2018-06-11T18:48:17.069Z,20.60
2018-06-11T18:50:44.538Z,20.50
2018-06-11T18:55:39.808Z,20.60
2018-06-11T18:58:07.496Z,20.40
2018-06-11T19:00:35.040Z,20.30
2018-06-11T19:03:02.620Z,20.20
2018-06-11T19:05:30.153Z,20.10
2018-06-11T19:07:57.723Z,20.20
2018-06-11T19:10:25.193Z,20.10
2018-06-11T19:12:52.690Z,20.10
2018-06-11T19:15:20.328Z,20.00
2018-06-11T19:17:47.880Z,20.10
2018-06-11T19:20:15.376Z,20.00
2018-06-11T19:22:42.926Z,20.00
2018-06-11T19:25:10.411Z,19.90
2018-06-11T19:27:38.054Z,19.90
2018-06-11T19:30:05.636Z,19.80
2018-06-11T19:32:33.049Z,19.90
2018-06-11T19:35:00.628Z,19.90
2018-06-11T19:37:28.093Z,19.90
2018-06-11T19:39:55.551Z,19.90
2018-06-11T19:42:23.059Z,19.90
2018-06-11T19:44:50.851Z,19.90
2018-06-11T19:49:45.758Z,19.90
2018-06-11T19:52:13.357Z,19.90
2018-06-11T19:54:40.849Z,19.90
2018-06-11T19:57:08.491Z,20.00
2018-06-11T19:59:36.029Z,20.00
2018-06-11T20:02:03.603Z,20.10
2018-06-11T20:04:31.180Z,20.20
2018-06-11T20:06:58.722Z,20.30
2018-06-11T20:09:26.230Z,20.30
2018-06-11T20:11:53.851Z,20.30
2018-06-11T20:14:21.278Z,20.20
2018-06-11T20:16:48.772Z,20.10
2018-06-11T20:19:17.341Z,20.00
2018-06-11T20:21:44.792Z,19.90
2018-06-11T20:24:12.227Z,20.00
2018-06-11T20:26:39.737Z,20.00
2018-06-11T20:29:07.211Z,19.90
2018-06-11T20:31:34.701Z,19.90
2018-06-11T20:34:02.254Z,19.90
2018-06-11T20:36:29.794Z,19.90
2018-06-11T20:38:57.431Z,19.80
2018-06-11T20:41:24.886Z,19.80
2018-06-11T20:43:55.004Z,19.90
2018-06-11T20:46:23.432Z,19.80
2018-06-11T20:48:54.218Z,19.90
2018-06-11T20:51:24.668Z,19.90
2018-06-11T20:53:55.128Z,20.00
2018-06-11T20:56:24.836Z,20.10
2018-06-11T20:58:52.729Z,20.10
2018-06-11T21:01:20.930Z,20.10
2018-06-11T21:03:48.846Z,20.10
2018-06-11T21:06:16.980Z,20.00
2018-06-11T21:08:44.483Z,20.00
2018-06-11T21:11:11.955Z,20.00
2018-06-11T21:13:39.383Z,20.10
2018-06-11T21:18:34.370Z,20.10
2018-06-11T21:21:01.931Z,20.00
2018-06-11T21:23:29.488Z,19.90
2018-06-11T21:25:57.004Z,19.80
2018-06-11T21:28:24.395Z,19.80
2018-06-11T21:30:51.929Z,19.70
2018-06-11T21:33:19.385Z,19.70
2018-06-11T21:35:46.982Z,19.80
2018-06-11T21:38:14.436Z,19.80
2018-06-11T21:40:42.010Z,19.80
2018-06-11T21:43:09.487Z,19.80
2018-06-11T21:45:37.006Z,19.70
2018-06-11T21:48:04.534Z,19.60
2018-06-11T21:50:32.122Z,19.70
2018-06-11T21:52:59.646Z,19.70
2018-06-11T21:55:27.149Z,19.70
2018-06-11T21:57:54.684Z,19.70
2018-06-11T22:00:22.235Z,19.70
2018-06-11T22:02:49.679Z,19.80
2018-06-11T22:05:17.213Z,19.80
2018-06-11T22:07:44.738Z,19.80
2018-06-11T22:10:12.231Z,19.80
2018-06-11T22:12:39.785Z,19.80
2018-06-11T22:15:07.237Z,19.70
2018-06-11T22:17:34.692Z,19.80
2018-06-11T22:20:02.195Z,19.60
2018-06-11T22:22:29.753Z,19.50
2018-06-11T22:24:57.128Z,19.40
2018-06-11T22:27:24.659Z,19.40
2018-06-11T22:29:52.185Z,19.50
2018-06-11T22:32:19.852Z,19.60
2018-06-11T22:34:47.322Z,19.60
2018-06-11T22:37:14.832Z,19.50
2018-06-11T22:39:42.370Z,19.50
2018-06-11T22:42:09.950Z,19.50
2018-06-11T22:44:37.417Z,19.50
2018-06-11T22:47:04.934Z,19.50
2018-06-11T22:49:32.397Z,19.50
2018-06-11T22:51:59.832Z,19.40
2018-06-11T22:54:27.369Z,19.20
2018-06-11T22:56:54.919Z,19.10
2018-06-11T22:59:22.350Z,19.20
2018-06-11T23:01:49.879Z,19.30
2018-06-11T23:04:17.401Z,19.30
2018-06-11T23:06:44.881Z,19.40
2018-06-11T23:09:12.401Z,19.50
2018-06-11T23:11:39.893Z,19.50
2018-06-11T23:14:07.377Z,19.50
2018-06-11T23:16:34.935Z,19.50
2018-06-11T23:19:02.383Z,19.40
2018-06-11T23:21:29.819Z,19.20
2018-06-11T23:23:57.394Z,19.20
2018-06-11T23:26:24.918Z,19.20
2018-06-11T23:28:52.423Z,19.20
2018-06-11T23:31:19.905Z,19.30
2018-06-11T23:33:47.385Z,19.20
2018-06-11T23:36:14.917Z,19.30
2018-06-11T23:38:42.417Z,19.20
2018-06-11T23:41:09.917Z,19.20
2018-06-11T23:43:37.285Z,19.20
2018-06-11T23:46:04.891Z,19.20
2018-06-11T23:48:32.321Z,19.10
2018-06-11T23:50:59.817Z,19.10
2018-06-11T23:53:27.435Z,19.20
2018-06-11T23:55:54.924Z,19.30
2018-06-11T23:58:22.345Z,19.30
